createdAt,value
2017-04-02T00:00:41.355Z,21.96
2017-04-02T00:01:51.264Z,21.99
2017-04-02T00:03:01.331Z,22.02
2017-04-02T00:04:11.281Z,22.1
2017-04-02T00:05:21.209Z,21.98
2017-04-02T00:06:31.434Z,22.05
2017-04-02T00:07:41.358Z,22.05
2017-04-02T00:08:51.585Z,22.07
2017-04-02T00:10:01.869Z,22.09
2017-04-02T00:11:11.781Z,22.05
2017-04-02T00:12:21.422Z,22.07
2017-04-02T00:13:31.665Z,22.14
2017-04-02T00:14:42.042Z,22.18
2017-04-02T00:15:51.650Z,22.24
2017-04-02T00:17:01.622Z,22.21
2017-04-02T00:18:11.530Z,22.18
2017-04-02T00:19:21.754Z,22.17
2017-04-02T00:20:32.168Z,22.22
2017-04-02T00:21:42.080Z,22.2
2017-04-02T00:22:52.293Z,22.22
2017-04-02T00:24:02.565Z,22.22
2017-04-02T00:25:12.165Z,22.18
2017-04-02T00:26:22.229Z,22.22
2017-04-02T00:27:32.146Z,22.2
2017-04-02T00:28:41.489Z,22.24
2017-04-02T00:29:51.433Z,22.18
2017-04-02T00:31:01.359Z,22.3
2017-04-02T00:32:11.138Z,22.25
2017-04-02T00:33:20.429Z,22.22
2017-04-02T00:34:30.413Z,22.22
2017-04-02T00:35:40.333Z,22.24
2017-04-02T00:36:50.579Z,22.22
2017-04-02T00:38:00.649Z,22.28
2017-04-02T00:39:10.549Z,22.27
2017-04-02T00:40:20.154Z,22.28
2017-04-02T00:41:29.749Z,22.24
2017-04-02T00:42:39.655Z,22.24
2017-04-02T00:43:49.396Z,22.25
2017-04-02T00:44:59.096Z,22.27
2017-04-02T00:46:08.743Z,22.24
2017-04-02T00:47:19.037Z,22.28
2017-04-02T00:48:28.976Z,22.3
2017-04-02T00:49:39.348Z,22.27
2017-04-02T00:50:49.590Z,22.27
2017-04-02T00:51:59.539Z,22.33
2017-04-02T00:53:09.453Z,22.27
2017-04-02T00:54:19.060Z,22.25
2017-04-02T00:55:29.440Z,22.31
2017-04-02T00:56:39.355Z,22.3
2017-04-02T00:57:48.655Z,22.36
2017-04-02T00:58:58.274Z,22.31
2017-04-02T01:00:07.579Z,22.28
2017-04-02T01:01:17.345Z,22.33
2017-04-02T01:02:27.782Z,22.28
2017-04-02T01:03:37.700Z,22.27
2017-04-02T01:04:47.300Z,22.27
2017-04-02T01:05:56.907Z,22.25
2017-04-02T01:07:07.270Z,22.27
2017-04-02T01:08:17.181Z,22.3
2017-04-02T01:09:27.396Z,22.28
2017-04-02T01:10:37.373Z,22.31
2017-04-02T01:11:47.583Z,22.36
2017-04-02T01:12:57.950Z,22.35
2017-04-02T01:14:08.185Z,22.28
2017-04-02T01:15:17.781Z,22.33
2017-04-02T01:16:27.691Z,22.35
2017-04-02T01:17:37.610Z,22.31
2017-04-02T01:18:47.680Z,22.37
2017-04-02T01:19:57.673Z,22.28
2017-04-02T01:21:07.917Z,22.4
2017-04-02T01:22:17.536Z,22.3
2017-04-02T01:23:27.835Z,22.37
2017-04-02T01:24:37.950Z,22.31
2017-04-02T01:25:48.166Z,22.35
2017-04-02T01:26:58.389Z,22.4
2017-04-02T01:28:08.329Z,22.37
2017-04-02T01:29:18.537Z,22.36
2017-04-02T01:30:28.004Z,22.36
2017-04-02T01:31:37.923Z,22.39
2017-04-02T01:32:47.520Z,22.36
2017-04-02T01:33:57.427Z,22.35
2017-04-02T01:35:07.346Z,22.39
2017-04-02T01:36:17.109Z,22.36
2017-04-02T01:37:27.023Z,22.37
2017-04-02T01:38:36.927Z,22.3
2017-04-02T01:39:47.138Z,22.33
2017-04-02T01:40:57.051Z,22.4
2017-04-02T01:42:07.014Z,22.35
2017-04-02T01:43:16.619Z,22.37
2017-04-02T01:44:26.565Z,22.35
2017-04-02T01:45:36.789Z,22.4
2017-04-02T01:46:46.732Z,22.39
2017-04-02T01:47:55.857Z,22.35
2017-04-02T01:49:05.464Z,22.42
2017-04-02T01:50:15.671Z,22.36
2017-04-02T01:51:25.895Z,22.39
2017-04-02T01:52:35.790Z,22.4
2017-04-02T01:53:46.162Z,22.4
2017-04-02T01:54:56.083Z,22.43
2017-04-02T01:56:05.689Z,22.35
2017-04-02T01:57:15.302Z,22.43
2017-04-02T01:58:25.567Z,22.42
2017-04-02T01:59:35.317Z,22.4
2017-04-02T02:00:44.609Z,22.46
2017-04-02T02:01:54.561Z,22.45
2017-04-02T02:03:04.777Z,22.4
2017-04-02T02:04:14.695Z,22.43
2017-04-02T02:05:24.449Z,22.4
2017-04-02T02:06:34.731Z,22.37
2017-04-02T02:07:44.949Z,22.39
2017-04-02T02:08:54.885Z,22.39
2017-04-02T02:10:04.497Z,22.39
2017-04-02T02:11:14.831Z,22.4
2017-04-02T02:12:24.131Z,22.37
2017-04-02T02:13:34.050Z,22.36
2017-04-02T02:14:43.686Z,22.39
2017-04-02T02:15:53.599Z,22.4
2017-04-02T02:17:03.912Z,22.36
2017-04-02T02:18:13.809Z,22.37
2017-04-02T02:19:23.725Z,22.45
2017-04-02T02:20:33.932Z,22.4
2017-04-02T02:21:43.834Z,22.39
2017-04-02T02:22:53.836Z,22.37
2017-04-02T02:24:03.139Z,22.42
2017-04-02T02:25:13.089Z,22.39
2017-04-02T02:26:23.308Z,22.39
2017-04-02T02:27:32.613Z,22.39
2017-04-02T02:28:42.675Z,22.4
2017-04-02T02:29:52.892Z,22.39
2017-04-02T02:31:03.106Z,22.35
2017-04-02T02:32:12.390Z,22.33
2017-04-02T02:33:21.697Z,22.37
2017-04-02T02:34:31.474Z,22.39
2017-04-02T02:35:41.403Z,22.36
2017-04-02T02:36:51.624Z,22.39
2017-04-02T02:38:01.521Z,22.42
2017-04-02T02:39:11.459Z,22.37
2017-04-02T02:40:20.870Z,22.37
2017-04-02T02:41:30.461Z,22.42
2017-04-02T02:42:40.062Z,22.42
2017-04-02T02:43:49.962Z,22.39
2017-04-02T02:44:59.557Z,22.4
2017-04-02T02:46:09.609Z,22.39
2017-04-02T02:47:19.519Z,22.37
2017-04-02T02:48:28.825Z,22.42
2017-04-02T02:49:38.728Z,22.39
2017-04-02T02:50:48.937Z,22.4
2017-04-02T02:51:59.344Z,22.39
2017-04-02T02:53:09.266Z,22.37
2017-04-02T02:54:19.489Z,22.37
2017-04-02T02:55:29.701Z,22.4
2017-04-02T02:56:39.620Z,22.39
2017-04-02T02:57:49.988Z,22.37
2017-04-02T02:58:59.593Z,22.37
2017-04-02T03:00:09.505Z,22.4
2017-04-02T03:01:19.733Z,22.43
2017-04-02T03:02:29.643Z,22.37
2017-04-02T03:03:40.030Z,22.4
2017-04-02T03:04:49.640Z,22.39
2017-04-02T03:05:59.547Z,22.37
2017-04-02T03:07:09.160Z,22.36
2017-04-02T03:08:18.766Z,22.39
2017-04-02T03:09:28.840Z,22.37
2017-04-02T03:10:38.441Z,22.39
2017-04-02T03:11:48.345Z,22.39
2017-04-02T03:12:58.247Z,22.35
2017-04-02T03:14:07.549Z,22.33
2017-04-02T03:15:17.032Z,22.37
2017-04-02T03:16:26.936Z,22.42
2017-04-02T03:17:36.860Z,22.39
2017-04-02T03:18:46.771Z,22.42
2017-04-02T03:19:57.034Z,22.37
2017-04-02T03:21:07.404Z,22.35
2017-04-02T03:22:17.619Z,22.37
2017-04-02T03:23:27.229Z,22.33
2017-04-02T03:24:37.141Z,22.33
2017-04-02T03:25:47.047Z,22.42
2017-04-02T03:26:57.105Z,22.3
2017-04-02T03:28:07.321Z,22.4
2017-04-02T03:29:17.530Z,22.35
2017-04-02T03:30:27.433Z,22.36
2017-04-02T03:31:37.341Z,22.39
2017-04-02T03:32:47.408Z,22.4
2017-04-02T03:34:16.270Z,22.35
2017-04-02T03:35:25.872Z,22.35
2017-04-02T03:36:35.158Z,22.3
2017-04-02T03:37:44.605Z,22.39
2017-04-02T03:38:54.821Z,22.33
2017-04-02T03:40:04.124Z,22.35
2017-04-02T03:41:13.724Z,22.31
2017-04-02T03:42:23.644Z,22.37
2017-04-02T03:43:33.086Z,22.39
2017-04-02T03:44:43.296Z,22.4
2017-04-02T03:45:52.888Z,22.28
2017-04-02T03:47:02.800Z,22.33
2017-04-02T03:48:13.019Z,22.28
2017-04-02T03:49:23.526Z,22.33
2017-04-02T03:50:33.430Z,22.37
2017-04-02T03:51:43.032Z,22.36
2017-04-02T03:52:52.940Z,22.36
2017-04-02T03:54:03.152Z,22.3
2017-04-02T03:55:12.898Z,22.33
2017-04-02T03:56:22.807Z,22.33
2017-04-02T03:57:33.022Z,22.35
2017-04-02T03:58:42.930Z,22.31
2017-04-02T03:59:52.228Z,22.37
2017-04-02T04:01:01.839Z,22.28
2017-04-02T04:02:12.047Z,22.33
2017-04-02T04:03:21.965Z,22.39
2017-04-02T04:04:32.220Z,22.3
2017-04-02T04:05:42.441Z,22.28
2017-04-02T04:06:53.000Z,22.39
2017-04-02T04:08:02.915Z,22.35
2017-04-02T04:09:12.818Z,22.31
2017-04-02T04:10:22.725Z,22.31
2017-04-02T04:11:32.636Z,22.27
2017-04-02T04:12:42.596Z,22.31
2017-04-02T04:13:52.513Z,22.27
2017-04-02T04:15:02.812Z,22.31
2017-04-02T04:16:12.510Z,22.3
2017-04-02T04:17:22.733Z,22.31
2017-04-02T04:18:33.293Z,22.35
2017-04-02T04:19:43.227Z,22.4
2017-04-02T04:20:53.824Z,22.31
2017-04-02T04:22:03.738Z,22.28
2017-04-02T04:23:13.345Z,22.27
2017-04-02T04:24:23.909Z,22.33
2017-04-02T04:25:33.513Z,22.3
2017-04-02T04:26:43.409Z,22.35
2017-04-02T04:27:53.621Z,22.39
2017-04-02T04:29:03.834Z,22.3
2017-04-02T04:30:13.592Z,22.35
2017-04-02T04:31:23.809Z,22.27
2017-04-02T04:32:33.709Z,22.3
2017-04-02T04:33:43.933Z,22.3
2017-04-02T04:34:53.531Z,22.27
2017-04-02T04:36:03.901Z,22.3
2017-04-02T04:37:13.807Z,22.28
2017-04-02T04:38:24.036Z,22.25
2017-04-02T04:39:33.635Z,22.36
2017-04-02T04:40:43.231Z,22.37
2017-04-02T04:41:53.489Z,22.33
2017-04-02T04:43:03.082Z,22.35
2017-04-02T04:44:13.289Z,22.28
2017-04-02T04:45:23.202Z,22.25
2017-04-02T04:46:33.441Z,22.31
2017-04-02T04:47:43.336Z,22.31
2017-04-02T04:48:53.538Z,22.28
2017-04-02T04:50:03.440Z,22.31
2017-04-02T04:51:13.363Z,22.28
2017-04-02T04:52:23.265Z,22.27
2017-04-02T04:53:33.626Z,22.25
2017-04-02T04:54:43.535Z,22.35
2017-04-02T04:55:53.443Z,22.28
2017-04-02T04:57:03.655Z,22.25
2017-04-02T04:58:13.256Z,22.27
2017-04-02T04:59:24.312Z,22.27
2017-04-02T05:00:34.521Z,22.27
2017-04-02T05:01:44.115Z,22.3
2017-04-02T05:02:54.023Z,22.31
2017-04-02T05:04:03.923Z,22.25
2017-04-02T05:05:14.845Z,22.31
2017-04-02T05:06:24.452Z,22.31
2017-04-02T05:07:34.383Z,22.27
2017-04-02T05:08:44.297Z,22.22
2017-04-02T05:09:54.521Z,22.25
2017-04-02T05:11:06.104Z,22.31
2017-04-02T05:12:16.011Z,22.27
2017-04-02T05:13:25.897Z,22.28
2017-04-02T05:14:35.499Z,22.31
2017-04-02T05:15:45.710Z,22.39
2017-04-02T05:16:55.734Z,22.27
2017-04-02T05:18:05.639Z,22.27
2017-04-02T05:19:15.299Z,22.28
2017-04-02T05:20:24.916Z,22.3
2017-04-02T05:21:34.202Z,22.33
2017-04-02T05:22:44.253Z,22.3
2017-04-02T05:23:53.848Z,22.25
2017-04-02T05:25:03.156Z,22.33
2017-04-02T05:26:13.062Z,22.33
2017-04-02T05:27:22.663Z,22.3
2017-04-02T05:28:33.171Z,22.33
2017-04-02T05:29:43.090Z,22.27
2017-04-02T05:30:53.050Z,22.3
2017-04-02T05:32:02.953Z,22.31
2017-04-02T05:33:13.161Z,22.36
2017-04-02T05:34:23.543Z,22.31
2017-04-02T05:35:33.476Z,22.39
2017-04-02T05:36:43.077Z,22.33
2017-04-02T05:37:53.281Z,22.31
2017-04-02T05:39:03.203Z,22.37
2017-04-02T05:40:13.114Z,22.35
2017-04-02T05:41:22.764Z,22.35
2017-04-02T05:42:33.061Z,22.35
2017-04-02T05:43:42.664Z,22.33
2017-04-02T05:44:52.267Z,22.42
2017-04-02T05:46:03.001Z,22.36
2017-04-02T05:47:11.978Z,22.37
2017-04-02T05:48:21.881Z,22.36
2017-04-02T05:49:31.185Z,22.37
2017-04-02T05:50:41.091Z,22.37
2017-04-02T05:51:51.294Z,22.35
2017-04-02T05:53:01.199Z,22.37
2017-04-02T05:54:11.110Z,22.4
2017-04-02T05:55:21.021Z,22.42
2017-04-02T05:56:30.935Z,22.46
2017-04-02T05:57:41.467Z,22.49
2017-04-02T05:58:51.366Z,22.49
2017-04-02T06:00:01.583Z,22.45
2017-04-02T06:01:11.845Z,22.46
2017-04-02T06:02:21.447Z,22.46
2017-04-02T06:03:32.407Z,22.4
2017-04-02T06:04:42.633Z,22.51
2017-04-02T06:05:52.540Z,22.47
2017-04-02T06:07:02.604Z,22.47
2017-04-02T06:08:12.223Z,22.54
2017-04-02T06:09:23.629Z,22.54
2017-04-02T06:10:33.533Z,22.51
2017-04-02T06:11:43.744Z,22.49
2017-04-02T06:12:53.955Z,22.55
2017-04-02T06:14:03.553Z,22.55
2017-04-02T06:15:13.194Z,22.49
2017-04-02T06:16:23.110Z,22.65
2017-04-02T06:17:33.331Z,22.57
2017-04-02T06:18:43.579Z,22.57
2017-04-02T06:19:53.515Z,22.68
2017-04-02T06:21:03.461Z,22.6
2017-04-02T06:22:13.055Z,22.64
2017-04-02T06:23:22.972Z,22.62
2017-04-02T06:24:33.210Z,22.7
2017-04-02T06:25:43.117Z,22.64
2017-04-02T06:26:53.034Z,22.64
2017-04-02T06:28:02.661Z,22.61
2017-04-02T06:29:12.259Z,22.72
2017-04-02T06:30:22.185Z,22.76
2017-04-02T06:31:32.087Z,22.68
2017-04-02T06:32:42.280Z,22.82
2017-04-02T06:33:51.877Z,22.85
2017-04-02T06:35:02.098Z,22.83
2017-04-02T06:36:12.017Z,22.86
2017-04-02T06:37:22.231Z,22.79
2017-04-02T06:38:32.529Z,22.88
2017-04-02T06:39:42.756Z,22.91
2017-04-02T06:40:52.987Z,22.9
2017-04-02T06:42:02.295Z,22.9
2017-04-02T06:43:12.233Z,22.92
2017-04-02T06:44:21.675Z,22.88
2017-04-02T06:45:31.900Z,22.9
2017-04-02T06:46:41.801Z,22.97
2017-04-02T06:47:51.705Z,22.92
2017-04-02T06:49:01.827Z,22.92
2017-04-02T06:50:11.891Z,23.02
2017-04-02T06:51:21.191Z,23.05
2017-04-02T06:52:31.406Z,23.1
2017-04-02T06:53:41.315Z,23.05
2017-04-02T06:54:51.510Z,23.15
2017-04-02T06:56:02.423Z,23.2
2017-04-02T06:57:12.325Z,23.2
2017-04-02T06:58:22.531Z,23.16
2017-04-02T06:59:32.135Z,23.23
2017-04-02T07:00:42.042Z,23.32
2017-04-02T07:01:52.117Z,23.39
2017-04-02T07:03:01.717Z,23.36
2017-04-02T07:04:11.110Z,23.33
2017-04-02T07:05:21.376Z,23.39
2017-04-02T07:06:32.134Z,23.36
2017-04-02T07:07:42.355Z,23.43
2017-04-02T07:08:52.705Z,23.43
2017-04-02T07:10:02.733Z,23.53
2017-04-02T07:11:12.625Z,23.46
2017-04-02T07:12:22.653Z,23.51
2017-04-02T07:13:34.040Z,23.53
2017-04-02T07:14:44.762Z,23.53
2017-04-02T07:15:55.005Z,23.51
2017-04-02T07:17:05.989Z,23.53
2017-04-02T07:18:16.175Z,23.48
2017-04-02T07:19:26.136Z,23.53
2017-04-02T07:20:36.051Z,23.53
2017-04-02T07:21:46.261Z,23.57
2017-04-02T07:22:56.322Z,23.53
2017-04-02T07:24:06.993Z,23.5
2017-04-02T07:25:18.079Z,23.58
2017-04-02T07:26:27.734Z,23.6
2017-04-02T07:27:37.649Z,23.58
2017-04-02T07:28:47.571Z,23.54
2017-04-02T07:29:57.172Z,23.6
2017-04-02T07:31:07.752Z,23.61
2017-04-02T07:32:18.429Z,23.65
2017-04-02T07:33:28.654Z,23.66
2017-04-02T07:34:38.260Z,23.69
2017-04-02T07:35:48.464Z,23.7
2017-04-02T07:36:59.467Z,23.69
2017-04-02T07:38:09.677Z,23.7
2017-04-02T07:39:19.919Z,23.63
2017-04-02T07:40:29.833Z,23.76
2017-04-02T07:41:40.052Z,23.76
2017-04-02T07:42:50.119Z,23.69
2017-04-02T07:43:59.723Z,23.7
2017-04-02T07:45:09.665Z,23.76
2017-04-02T07:46:19.887Z,23.75
2017-04-02T07:47:29.241Z,23.79
2017-04-02T07:48:39.555Z,23.83
2017-04-02T07:49:49.498Z,23.88
2017-04-02T07:50:59.126Z,23.9
2017-04-02T07:52:09.048Z,23.88
2017-04-02T07:53:18.649Z,23.83
2017-04-02T07:54:28.920Z,23.93
2017-04-02T07:55:38.521Z,23.97
2017-04-02T07:56:48.751Z,24.05
2017-04-02T07:57:58.668Z,24.03
2017-04-02T07:59:08.588Z,24.09
2017-04-02T08:00:19.868Z,24.12
2017-04-02T08:01:29.772Z,24.21
2017-04-02T08:02:39.674Z,24.28
2017-04-02T08:03:49.598Z,24.27
2017-04-02T08:04:59.510Z,24.25
2017-04-02T08:06:09.225Z,24.31
2017-04-02T08:07:19.442Z,24.46
2017-04-02T08:08:28.769Z,24.35
2017-04-02T08:09:38.997Z,24.47
2017-04-02T08:10:48.901Z,24.42
2017-04-02T08:11:58.831Z,24.42
2017-04-02T08:13:08.126Z,24.45
2017-04-02T08:14:18.328Z,24.46
2017-04-02T08:15:28.533Z,24.52
2017-04-02T08:16:38.459Z,24.49
2017-04-02T08:17:48.668Z,24.58
2017-04-02T08:18:58.882Z,24.55
2017-04-02T08:20:08.793Z,24.6
2017-04-02T08:21:19.014Z,24.58
2017-04-02T08:22:28.392Z,24.53
2017-04-02T08:23:37.831Z,24.62
2017-04-02T08:24:47.774Z,24.68
2017-04-02T08:25:57.688Z,24.67
2017-04-02T08:27:07.309Z,24.67
2017-04-02T08:28:16.605Z,24.65
2017-04-02T08:29:26.872Z,24.68
2017-04-02T08:30:37.105Z,24.6
2017-04-02T08:31:46.720Z,24.68
2017-04-02T08:32:56.337Z,24.62
2017-04-02T08:34:06.257Z,24.65
2017-04-02T08:35:16.364Z,24.62
2017-04-02T08:36:26.595Z,24.71
2017-04-02T08:37:36.508Z,24.68
2017-04-02T08:38:46.733Z,24.65
2017-04-02T08:39:56.950Z,24.64
2017-04-02T08:41:06.866Z,24.57
2017-04-02T08:42:16.461Z,24.65
2017-04-02T08:43:26.065Z,24.64
2017-04-02T08:44:36.273Z,24.6
2017-04-02T08:45:46.183Z,24.6
2017-04-02T08:46:55.989Z,24.53
2017-04-02T08:48:07.819Z,24.58
2017-04-02T08:49:18.802Z,24.52
2017-04-02T08:50:29.271Z,24.52
2017-04-02T08:51:40.709Z,24.55
2017-04-02T08:52:50.330Z,24.55
2017-04-02T08:54:00.284Z,24.49
2017-04-02T08:55:10.609Z,24.42
2017-04-02T08:56:20.230Z,24.49
2017-04-02T08:57:29.887Z,24.49
2017-04-02T08:58:40.639Z,24.5
2017-04-02T08:59:50.561Z,24.42
2017-04-02T09:01:00.463Z,24.49
2017-04-02T09:02:10.384Z,24.47
2017-04-02T09:03:20.333Z,24.45
2017-04-02T09:04:31.706Z,24.52
2017-04-02T09:05:41.641Z,24.47
2017-04-02T09:06:51.856Z,24.47
2017-04-02T09:08:01.773Z,24.53
2017-04-02T09:09:11.412Z,24.5
2017-04-02T09:10:22.073Z,24.49
2017-04-02T09:11:32.026Z,24.42
2017-04-02T09:12:41.686Z,24.52
2017-04-02T09:13:51.911Z,24.46
2017-04-02T09:15:02.169Z,24.5
2017-04-02T09:16:11.933Z,24.45
2017-04-02T09:17:22.171Z,24.58
2017-04-02T09:18:31.506Z,24.5
2017-04-02T09:19:41.100Z,24.49
2017-04-02T09:20:51.010Z,24.47
2017-04-02T09:22:01.070Z,24.27
2017-04-02T09:23:11.320Z,24.34
2017-04-02T09:24:21.228Z,24.12
2017-04-02T09:25:31.156Z,24.02
2017-04-02T09:26:41.390Z,23.72
2017-04-02T09:27:53.409Z,23.53
2017-04-02T09:29:04.435Z,23.2
2017-04-02T09:30:14.361Z,22.86
2017-04-02T09:31:24.353Z,22.61
2017-04-02T09:32:35.012Z,22.43
2017-04-02T09:33:45.649Z,22.27
2017-04-02T09:34:55.874Z,22.02
2017-04-02T09:36:05.462Z,21.98
2017-04-02T09:37:15.422Z,21.71
2017-04-02T09:38:25.024Z,21.53
2017-04-02T09:39:35.527Z,21.47
2017-04-02T09:40:45.132Z,21.42
2017-04-02T09:41:55.038Z,21.31
2017-04-02T09:43:04.979Z,21.13
2017-04-02T09:44:14.869Z,21.04
2017-04-02T09:45:25.257Z,21.07
2017-04-02T09:46:35.480Z,20.95
2017-04-02T09:47:45.685Z,20.95
2017-04-02T09:48:55.276Z,20.84
2017-04-02T09:50:05.520Z,20.89
2017-04-02T09:51:15.281Z,20.79
2017-04-02T09:52:25.502Z,20.77
2017-04-02T09:53:35.104Z,20.66
2017-04-02T09:54:45.017Z,20.69
2017-04-02T09:55:55.222Z,20.67
2017-04-02T09:57:05.237Z,20.62
2017-04-02T09:58:14.853Z,20.61
2017-04-02T09:59:25.095Z,20.51
2017-04-02T10:00:35.342Z,20.47
2017-04-02T10:01:45.261Z,20.47
2017-04-02T10:02:56.227Z,20.38
2017-04-02T10:04:05.851Z,20.35
2017-04-02T10:05:15.512Z,20.36
2017-04-02T10:06:25.416Z,20.41
2017-04-02T10:07:35.352Z,20.39
2017-04-02T10:08:45.426Z,20.32
2017-04-02T10:09:55.332Z,20.38
2017-04-02T10:11:04.988Z,20.36
2017-04-02T10:12:14.949Z,20.33
2017-04-02T10:13:25.175Z,20.32
2017-04-02T10:14:35.501Z,20.36
2017-04-02T10:15:45.447Z,20.31
2017-04-02T10:16:55.709Z,20.38
2017-04-02T10:18:05.369Z,20.38
2017-04-02T10:19:15.328Z,20.36
2017-04-02T10:20:24.970Z,20.43
2017-04-02T10:21:34.603Z,20.73
2017-04-02T10:22:44.818Z,20.8
2017-04-02T10:23:54.423Z,21.09
2017-04-02T10:25:04.691Z,21.22
2017-04-02T10:26:15.238Z,21.38
2017-04-02T10:27:24.865Z,21.65
2017-04-02T10:28:35.097Z,21.79
2017-04-02T10:29:45.311Z,21.99
2017-04-02T10:30:55.228Z,21.96
2017-04-02T10:32:05.436Z,22.22
2017-04-02T10:33:15.347Z,22.31
2017-04-02T10:34:25.560Z,22.4
2017-04-02T10:35:35.211Z,22.62
2017-04-02T10:36:45.143Z,22.57
2017-04-02T10:37:55.391Z,22.58
2017-04-02T10:39:05.325Z,22.76
2017-04-02T10:40:15.247Z,22.88
2017-04-02T10:41:25.466Z,22.97
2017-04-02T10:42:35.079Z,23.1
2017-04-02T10:43:44.773Z,23.15
2017-04-02T10:44:54.675Z,23.15
2017-04-02T10:46:04.283Z,23.27
2017-04-02T10:47:13.576Z,23.39
2017-04-02T10:48:23.198Z,23.46
2017-04-02T10:49:33.710Z,23.58
2017-04-02T10:50:43.305Z,23.54
2017-04-02T10:51:53.012Z,23.66
2017-04-02T10:53:02.921Z,23.7
2017-04-02T10:54:12.525Z,23.76
2017-04-02T10:55:22.494Z,23.7
2017-04-02T10:56:32.726Z,23.78
2017-04-02T10:57:42.956Z,23.72
2017-04-02T10:58:53.166Z,23.79
2017-04-02T11:00:02.770Z,23.9
2017-04-02T11:01:12.728Z,23.94
2017-04-02T11:02:22.636Z,23.88
2017-04-02T11:03:32.555Z,23.98
2017-04-02T11:04:42.159Z,23.97
2017-04-02T11:05:52.070Z,24.03
2017-04-02T11:07:03.105Z,24.08
2017-04-02T11:08:12.722Z,24.18
2017-04-02T11:09:21.712Z,24.05
2017-04-02T11:10:31.316Z,24.09
2017-04-02T11:11:41.243Z,24.22
2017-04-02T11:12:51.474Z,24.2
2017-04-02T11:14:00.822Z,24.22
2017-04-02T11:15:11.046Z,24.22
2017-04-02T11:16:21.001Z,24.25
2017-04-02T11:17:30.315Z,24.18
2017-04-02T11:18:40.651Z,24.3
2017-04-02T11:19:49.986Z,24.28
2017-04-02T11:20:59.903Z,24.32
2017-04-02T11:22:09.878Z,24.09
2017-04-02T11:23:19.500Z,23.83
2017-04-02T11:24:29.838Z,23.54
2017-04-02T11:25:39.771Z,23.4
2017-04-02T11:26:49.895Z,23.15
2017-04-02T11:27:59.558Z,22.8
2017-04-02T11:29:09.864Z,22.61
2017-04-02T11:30:20.652Z,22.54
2017-04-02T11:31:31.557Z,22.35
2017-04-02T11:32:41.681Z,22.22
2017-04-02T11:33:52.662Z,22.06
2017-04-02T11:35:02.271Z,21.88
2017-04-02T11:36:12.197Z,21.9
2017-04-02T11:37:21.860Z,21.72
2017-04-02T11:38:32.864Z,21.65
2017-04-02T11:39:42.504Z,21.47
2017-04-02T11:40:52.243Z,21.4
2017-04-02T11:42:02.467Z,21.34
2017-04-02T11:43:12.852Z,21.32
2017-04-02T11:44:22.882Z,21.24
2017-04-02T11:45:32.254Z,21.25
2017-04-02T11:46:42.575Z,21.13
2017-04-02T11:47:52.708Z,21.21
2017-04-02T11:49:02.322Z,21.06
2017-04-02T11:50:13.081Z,21.04
2017-04-02T11:51:23.309Z,20.98
2017-04-02T11:52:32.674Z,20.97
2017-04-02T11:53:42.608Z,20.98
2017-04-02T11:54:52.555Z,20.98
2017-04-02T11:56:02.600Z,20.94
2017-04-02T11:57:12.914Z,20.94
2017-04-02T11:58:22.538Z,20.97
2017-04-02T11:59:32.216Z,20.95
2017-04-02T12:00:41.852Z,20.95
2017-04-02T12:01:52.064Z,20.97
2017-04-02T12:03:02.003Z,20.94
2017-04-02T12:04:12.306Z,21.03
2017-04-02T12:05:22.604Z,20.92
2017-04-02T12:06:32.638Z,20.84
2017-04-02T12:07:43.601Z,20.79
2017-04-02T12:08:53.276Z,20.8
2017-04-02T12:10:02.885Z,20.76
2017-04-02T12:11:12.631Z,20.77
2017-04-02T12:12:22.534Z,20.74
2017-04-02T12:13:32.915Z,20.82
2017-04-02T12:14:43.031Z,20.74
2017-04-02T12:15:53.638Z,20.79
2017-04-02T12:17:03.877Z,20.8
2017-04-02T12:18:13.530Z,20.79
2017-04-02T12:19:23.372Z,20.74
2017-04-02T12:20:33.314Z,20.8
2017-04-02T12:21:43.234Z,20.77
2017-04-02T12:22:53.692Z,20.77
2017-04-02T12:24:03.332Z,20.84
2017-04-02T12:25:13.364Z,20.8
2017-04-02T12:26:22.977Z,20.89
2017-04-02T12:27:33.422Z,20.94
2017-04-02T12:28:43.166Z,20.94
2017-04-02T12:29:52.761Z,20.92
2017-04-02T12:31:02.981Z,20.98
2017-04-02T12:32:12.916Z,20.98
2017-04-02T12:33:22.776Z,20.95
2017-04-02T12:34:33.095Z,21.01
2017-04-02T12:35:42.406Z,21.06
2017-04-02T12:36:53.131Z,20.99
2017-04-02T12:38:04.017Z,21.01
2017-04-02T12:39:13.958Z,20.99
2017-04-02T12:40:24.483Z,21.03
2017-04-02T12:41:34.699Z,20.99
2017-04-02T12:42:45.324Z,20.95
2017-04-02T12:43:55.704Z,20.99
2017-04-02T12:45:06.314Z,20.92
2017-04-02T12:46:16.269Z,20.95
2017-04-02T12:47:25.638Z,20.98
2017-04-02T12:48:37.267Z,20.97
2017-04-02T12:49:47.529Z,20.98
2017-04-02T12:50:57.209Z,20.99
2017-04-02T12:52:06.539Z,20.92
2017-04-02T12:53:15.850Z,20.95
2017-04-02T12:54:26.067Z,20.95
2017-04-02T12:55:35.991Z,20.91
2017-04-02T12:56:45.624Z,20.98
2017-04-02T12:57:55.555Z,20.91
2017-04-02T12:59:05.782Z,20.94
2017-04-02T13:00:16.052Z,20.94
2017-04-02T13:01:26.431Z,20.98
2017-04-02T13:02:36.388Z,20.99
2017-04-02T13:03:45.796Z,20.99
2017-04-02T13:04:55.496Z,20.99
2017-04-02T13:06:05.598Z,20.99
2017-04-02T13:07:15.715Z,21.01
2017-04-02T13:08:26.026Z,21.03
2017-04-02T13:09:35.650Z,20.97
2017-04-02T13:10:44.630Z,21.07
2017-04-02T13:11:55.124Z,21.06
2017-04-02T13:13:05.369Z,21.04
2017-04-02T13:14:15.384Z,21.06
2017-04-02T13:15:26.085Z,21.09
2017-04-02T13:16:36.332Z,21.1
2017-04-02T13:17:47.006Z,21.04
2017-04-02T13:18:57.253Z,21.1
2017-04-02T13:20:06.560Z,21.06
2017-04-02T13:21:16.810Z,21.01
2017-04-02T13:22:27.423Z,21.07
2017-04-02T13:23:37.962Z,21.06
2017-04-02T13:24:47.851Z,21.07
2017-04-02T13:25:57.463Z,21.09
2017-04-02T13:27:07.729Z,21.06
2017-04-02T13:28:17.962Z,21.1
2017-04-02T13:29:28.274Z,21.01
2017-04-02T13:30:37.570Z,21.06
2017-04-02T13:31:47.893Z,21.06
2017-04-02T13:32:57.803Z,21.01
2017-04-02T13:34:08.407Z,20.94
2017-04-02T13:35:18.619Z,20.99
2017-04-02T13:36:28.516Z,21.06
2017-04-02T13:37:38.457Z,21.13
2017-04-02T13:38:48.678Z,21.12
2017-04-02T13:39:59.141Z,21.12
2017-04-02T13:41:09.087Z,21.12
2017-04-02T13:42:19.081Z,21.25
2017-04-02T13:43:29.289Z,21.38
2017-04-02T13:44:39.281Z,21.47
2017-04-02T13:45:48.962Z,21.56
2017-04-02T13:46:59.027Z,21.67
2017-04-02T13:48:09.251Z,21.8
2017-04-02T13:49:19.598Z,21.92
2017-04-02T13:50:29.280Z,22.03
2017-04-02T13:51:39.266Z,22.05
2017-04-02T13:52:49.730Z,22.18
2017-04-02T13:53:59.637Z,22.28
2017-04-02T13:55:09.784Z,22.36
2017-04-02T13:56:20.001Z,22.55
2017-04-02T13:57:30.234Z,22.58
2017-04-02T13:58:40.841Z,22.55
2017-04-02T13:59:51.213Z,22.72
2017-04-02T14:01:00.899Z,22.77
2017-04-02T14:02:11.136Z,22.9
2017-04-02T14:03:21.150Z,22.97
2017-04-02T14:04:31.798Z,23.01
2017-04-02T14:05:41.864Z,23.13
2017-04-02T14:06:52.612Z,23.13
2017-04-02T14:08:02.387Z,23.17
2017-04-02T14:09:12.038Z,23.28
2017-04-02T14:10:21.732Z,23.27
2017-04-02T14:11:31.351Z,23.35
2017-04-02T14:12:41.269Z,23.42
2017-04-02T14:13:51.572Z,23.36
2017-04-02T14:15:01.019Z,23.35
2017-04-02T14:16:11.283Z,23.42
2017-04-02T14:17:21.214Z,23.43
2017-04-02T14:18:31.551Z,23.5
2017-04-02T14:19:42.561Z,23.54
2017-04-02T14:20:53.198Z,23.6
2017-04-02T14:22:03.617Z,23.54
2017-04-02T14:23:13.848Z,23.61
2017-04-02T14:24:23.820Z,23.63
2017-04-02T14:25:33.664Z,23.66
2017-04-02T14:26:43.294Z,23.69
2017-04-02T14:27:53.311Z,23.65
2017-04-02T14:29:03.639Z,23.76
2017-04-02T14:30:13.839Z,23.7
2017-04-02T14:31:24.080Z,23.61
2017-04-02T14:32:33.407Z,23.7
2017-04-02T14:33:43.575Z,23.7
2017-04-02T14:34:53.264Z,23.84
2017-04-02T14:36:03.039Z,23.7
2017-04-02T14:37:13.007Z,23.83
2017-04-02T14:38:23.185Z,23.76
2017-04-02T14:39:34.308Z,23.87
2017-04-02T14:40:43.693Z,23.88
2017-04-02T14:41:53.849Z,23.84
2017-04-02T14:43:03.780Z,23.97
2017-04-02T14:44:14.097Z,23.95
2017-04-02T14:45:24.375Z,23.94
2017-04-02T14:46:34.756Z,23.93
2017-04-02T14:47:44.524Z,23.9
2017-04-02T14:48:54.871Z,23.95
2017-04-02T14:50:04.835Z,23.85
2017-04-02T14:51:15.208Z,23.93
2017-04-02T14:52:25.445Z,23.9
2017-04-02T14:53:34.800Z,23.9
2017-04-02T14:54:45.003Z,23.9
2017-04-02T14:55:54.075Z,23.95
2017-04-02T14:57:03.806Z,23.94
2017-04-02T14:58:14.121Z,23.94
2017-04-02T14:59:24.574Z,23.94
2017-04-02T15:00:34.497Z,23.93
2017-04-02T15:01:45.124Z,23.95
2017-04-02T15:02:54.541Z,23.93
2017-04-02T15:04:05.181Z,23.91
2017-04-02T15:05:14.798Z,23.88
2017-04-02T15:06:25.036Z,23.95